Time;durP1;ratioP1;P1;durP2;ratioP2;P2;SDS_P1;SDS_P2;PMS_P1;PMS_P2;Temp;Humidity;BMP_temperature;BMP_pressure;BME280_temperature;BME280_humidity;BME280_pressure;Samples;Min_cycle;Max_cycle;Signal;HPM_P1;HPM_P2
2023/09/14 00:00:35;;;;;;;0.00;0.00;;;;;;;13.98;100.00;102253.19;5102975;28;20467;-46
2023/09/14 00:03:02;;;;;;;0.00;0.00;;;;;;;13.95;100.00;102248.09;5092406;28;20375;-45
2023/09/14 00:05:28;;;;;;;0.00;0.00;;;;;;;13.92;100.00;102254.69;5101710;28;20039;-45
2023/09/14 00:07:54;;;;;;;0.00;0.00;;;;;;;13.92;100.00;102259.28;5099617;28;20024;-46
2023/09/14 00:10:19;;;;;;;0.00;0.00;;;;;;;13.90;100.00;102264.00;5092848;28;20162;-47
2023/09/14 00:12:45;;;;;;;0.00;0.00;;;;;;;13.89;100.00;102265.03;5094367;28;20744;-45
2023/09/14 00:15:10;;;;;;;0.00;0.00;;;;;;;13.88;100.00;102266.91;5104354;28;20045;-46
2023/09/14 00:17:36;;;;;;;0.00;0.00;;;;;;;13.84;100.00;102279.06;5109724;28;20032;-44
2023/09/14 00:20:01;;;;;;;0.10;0.00;;;;;;;13.81;100.00;102269.41;5096262;28;20438;-45
2023/09/14 00:22:26;;;;;;;0.00;0.00;;;;;;;13.78;100.00;102272.47;5092787;28;20024;-45
2023/09/14 00:24:52;;;;;;;0.00;0.00;;;;;;;13.77;100.00;102273.50;5097645;28;20382;-44
2023/09/14 00:27:18;;;;;;;0.00;0.00;;;;;;;13.75;100.00;102271.97;5106167;28;20035;-45
2023/09/14 00:29:46;;;;;;;0.00;0.00;;;;;;;13.71;100.00;102266.03;5112608;28;20093;-43
2023/09/14 00:32:11;;;;;;;0.00;0.00;;;;;;;13.68;100.00;102260.94;5112520;28;20027;-44
2023/09/14 00:34:36;;;;;;;0.00;0.00;;;;;;;13.67;100.00;102267.41;5108742;28;20153;-43
2023/09/14 00:37:02;;;;;;;0.00;0.00;;;;;;;13.66;100.00;102271.09;5113087;28;20038;-44
2023/09/14 00:39:28;;;;;;;0.00;0.00;;;;;;;13.62;100.00;102267.03;5112866;28;20381;-43
2023/09/14 00:41:53;;;;;;;0.00;0.00;;;;;;;13.59;100.00;102261.97;5113380;28;20431;-43
2023/09/14 00:44:18;;;;;;;0.00;0.00;;;;;;;13.60;100.00;102258.25;5104776;28;20059;-45
2023/09/14 00:46:44;;;;;;;0.00;0.00;;;;;;;13.57;100.00;102264.84;5102351;28;20028;-44
2023/09/14 00:49:09;;;;;;;0.00;0.00;;;;;;;13.56;100.00;102259.56;5099499;28;20032;-43
2023/09/14 00:51:35;;;;;;;0.00;0.00;;;;;;;13.53;100.00;102258.09;5104549;28;20489;-44
2023/09/14 00:54:03;;;;;;;0.00;0.00;;;;;;;13.50;100.00;102262.97;5103504;28;20126;-43
2023/09/14 00:56:29;;;;;;;0.00;0.00;;;;;;;13.48;100.00;102256.88;5093049;28;20028;-45
2023/09/14 00:58:55;;;;;;;0.00;0.00;;;;;;;13.46;100.00;102258.91;5097066;28;20513;-44
2023/09/14 01:01:21;;;;;;;0.00;0.00;;;;;;;13.41;100.00;102255.84;5106837;28;20027;-44
2023/09/14 01:03:47;;;;;;;0.00;0.00;;;;;;;13.41;100.00;102256.69;5100437;28;20481;-43
2023/09/14 01:06:12;;;;;;;0.00;0.00;;;;;;;13.41;100.00;102255.84;5095388;28;20024;-44
2023/09/14 01:08:38;;;;;;;0.00;0.00;;;;;;;13.38;100.00;102252.47;5099621;28;20031;-44
2023/09/14 01:11:03;;;;;;;0.00;0.00;;;;;;;13.36;100.00;102265.31;5109723;28;20592;-44
2023/09/14 01:13:48;;;;;;;0.00;0.00;;;;;;;13.35;100.00;102263.63;5111439;28;20327;-45
2023/09/14 01:16:33;;;;;;;0.00;0.00;;;;;;;13.29;100.00;102266.13;5109722;28;20029;-43
2023/09/14 01:19:26;;;;;;;0.00;0.00;;;;;;;13.27;100.00;102266.31;5100886;28;20081;-44
2023/09/14 01:22:21;;;;;;;0.00;0.00;;;;;;;13.22;100.00;102265.91;5090953;28;20119;-44
2023/09/14 01:24:52;;;;;;;0.00;0.00;;;;;;;13.21;100.00;102268.78;5072499;28;20477;-44
2023/09/14 01:27:18;;;;;;;0.00;0.00;;;;;;;13.21;100.00;102266.91;5102567;28;20038;-43
2023/09/14 01:29:43;;;;;;;0.00;0.00;;;;;;;13.20;100.00;102259.81;5099585;28;20023;-45
2023/09/14 01:32:09;;;;;;;0.00;0.00;;;;;;;13.20;100.00;102262.53;5091552;28;20101;-44
2023/09/14 01:34:35;;;;;;;0.00;0.00;;;;;;;13.21;100.00;102261.50;5096485;28;20074;-46
2023/09/14 01:37:04;;;;;;;0.00;0.00;;;;;;;13.21;100.00;102260.66;5090588;28;20052;-45
2023/09/14 01:39:30;;;;;;;0.00;0.00;;;;;;;13.22;100.00;102265.06;5090679;28;20023;-42
2023/09/14 01:41:56;;;;;;;0.00;0.00;;;;;;;13.22;100.00;102259.63;5089692;28;20024;-43
2023/09/14 01:44:26;;;;;;;0.00;0.00;;;;;;;13.25;100.00;102260.19;5090772;28;20055;-44
2023/09/14 01:46:55;;;;;;;0.00;0.00;;;;;;;13.25;100.00;102260.19;5093889;28;20100;-45
2023/09/14 01:49:20;;;;;;;0.00;0.00;;;;;;;13.24;100.00;102257.63;5101621;28;20032;-44
2023/09/14 01:51:46;;;;;;;0.00;0.00;;;;;;;13.24;100.00;102261.16;5090334;28;20035;-43
2023/09/14 01:54:11;;;;;;;0.00;0.00;;;;;;;13.21;100.00;102261.50;5092174;28;20089;-43
2023/09/14 01:56:37;;;;;;;0.00;0.00;;;;;;;13.20;100.00;102265.22;5090838;28;20107;-45
2023/09/14 01:59:02;;;;;;;0.00;0.00;;;;;;;13.20;100.00;102267.09;5089927;28;20028;-48
2023/09/14 02:01:28;;;;;;;0.00;0.00;;;;;;;13.20;100.00;102259.00;5095654;28;20070;-44
2023/09/14 02:03:53;;;;;;;0.00;0.00;;;;;;;13.22;100.00;102260.50;5097698;28;20106;-47
2023/09/14 02:06:19;;;;;;;0.00;0.00;;;;;;;13.24;100.00;102261.16;5093475;28;20036;-45
2023/09/14 02:08:45;;;;;;;0.00;0.00;;;;;;;13.21;100.00;102253.41;5090650;28;20028;-46
2023/09/14 02:11:13;;;;;;;0.00;0.00;;;;;;;13.18;100.00;102251.03;5090431;28;20032;-49
2023/09/14 02:13:38;;;;;;;0.00;0.00;;;;;;;13.15;100.00;102248.66;5090125;28;20024;-46
2023/09/14 02:16:04;;;;;;;0.00;0.00;;;;;;;13.18;100.00;102251.88;5100868;28;20055;-43
2023/09/14 02:18:29;;;;;;;0.00;0.00;;;;;;;13.19;100.00;102247.31;5100831;28;20457;-45
2023/09/14 02:20:54;;;;;;;0.00;0.00;;;;;;;13.20;100.00;102243.59;5090207;28;20119;-46
2023/09/14 02:23:20;;;;;;;0.00;0.00;;;;;;;13.18;100.00;102241.06;5088892;28;20492;-43
2023/09/14 02:25:45;;;;;;;0.00;0.00;;;;;;;13.17;100.00;102241.25;5088376;28;20119;-46
2023/09/14 02:28:11;;;;;;;0.00;0.00;;;;;;;13.16;100.00;102244.94;5090016;28;20028;-45
2023/09/14 02:30:39;;;;;;;0.00;0.00;;;;;;;13.14;100.00;102234.31;5108011;28;20119;-45
2023/09/14 02:33:06;;;;;;;0.00;0.00;;;;;;;13.12;100.00;102240.88;5108713;28;20035;-45
2023/09/14 02:35:32;;;;;;;0.00;0.00;;;;;;;13.05;100.00;102232.56;5095734;28;20062;-44
2023/09/14 02:37:57;;;;;;;0.00;0.00;;;;;;;13.01;100.00;102233.94;5091595;28;20500;-44
2023/09/14 02:40:22;;;;;;;0.00;0.00;;;;;;;13.00;100.00;102234.06;5104439;28;20077;-45
2023/09/14 02:42:48;;;;;;;0.00;0.00;;;;;;;12.95;100.00;102234.56;5089921;28;20043;-44
2023/09/14 02:45:13;;;;;;;0.00;0.00;;;;;;;12.91;100.00;102233.22;5092857;28;20051;-44
2023/09/14 02:47:39;;;;;;;0.00;0.00;;;;;;;12.91;100.00;102241.31;5108429;28;20030;-45
2023/09/14 02:50:04;;;;;;;0.00;0.00;;;;;;;12.90;100.00;102231.50;5099192;28;20051;-43
2023/09/14 02:52:30;;;;;;;0.00;0.00;;;;;;;12.86;100.00;102230.16;5095641;28;20111;-42
2023/09/14 02:54:55;;;;;;;0.00;0.00;;;;;;;12.84;100.00;102227.59;5104821;28;20099;-45
2023/09/14 02:57:21;;;;;;;0.00;0.00;;;;;;;12.82;100.00;102228.78;5101966;28;20031;-42
2023/09/14 02:59:46;;;;;;;0.00;0.00;;;;;;;12.81;100.00;102235.19;5094813;28;20099;-44
2023/09/14 03:02:11;;;;;;;0.00;0.00;;;;;;;12.79;100.00;102235.34;5089886;28;20020;-44
2023/09/14 03:04:37;;;;;;;0.00;0.00;;;;;;;12.77;100.00;102234.69;5104307;28;20081;-44
2023/09/14 03:07:02;;;;;;;0.00;0.00;;;;;;;12.76;100.00;102234.84;5094065;28;20497;-44
2023/09/14 03:09:27;;;;;;;0.00;0.00;;;;;;;12.77;100.00;102225.72;5109208;28;20141;-43
2023/09/14 03:11:54;;;;;;;0.00;0.00;;;;;;;12.76;100.00;102230.28;5110158;28;20016;-47
2023/09/14 03:14:19;;;;;;;0.00;0.00;;;;;;;12.73;100.00;102225.19;5109637;28;20027;-45
2023/09/14 03:16:45;;;;;;;0.00;0.00;;;;;;;12.68;100.00;102217.56;5107490;28;20032;-44
2023/09/14 03:19:10;;;;;;;0.00;0.00;;;;;;;12.62;100.00;102217.38;5113605;27;20080;-44
2023/09/14 03:21:35;;;;;;;0.00;0.00;;;;;;;12.60;100.00;102224.81;5112598;28;20047;-43
2023/09/14 03:24:01;;;;;;;0.00;0.00;;;;;;;12.57;100.00;102220.56;5111642;28;20031;-44
2023/09/14 03:26:29;;;;;;;0.00;0.00;;;;;;;12.54;100.00;102225.47;5100424;28;20086;-44
2023/09/14 03:28:54;;;;;;;0.00;0.00;;;;;;;12.47;100.00;102226.06;5113360;28;20034;-44
2023/09/14 03:31:20;;;;;;;0.00;0.00;;;;;;;12.47;100.00;102230.63;5113322;28;20024;-44
2023/09/14 03:33:47;;;;;;;0.00;0.00;;;;;;;12.47;100.00;102234.19;5097914;28;20478;-45
2023/09/14 03:36:12;;;;;;;0.00;0.00;;;;;;;12.48;100.00;102235.03;5096405;28;20024;-44
2023/09/14 03:38:37;;;;;;;0.00;0.00;;;;;;;12.47;100.00;102234.19;5109917;28;20572;-45
2023/09/14 03:41:03;;;;;;;0.00;0.00;;;;;;;12.47;100.00;102230.63;5099604;28;20452;-43
2023/09/14 03:43:28;;;;;;;0.00;0.00;;;;;;;12.43;100.00;102235.53;5110171;28;20032;-46
2023/09/14 03:45:54;;;;;;;0.00;0.00;;;;;;;12.40;100.00;102229.56;5110668;28;20039;-44
2023/09/14 03:48:19;;;;;;;0.00;0.00;;;;;;;12.41;100.00;102234.00;5105030;27;20448;-45
2023/09/14 03:50:44;;;;;;;0.00;0.00;;;;;;;12.41;100.00;102232.13;5095334;28;20042;-43
2023/09/14 03:53:10;;;;;;;0.00;0.00;;;;;;;12.41;100.00;102234.00;5092827;28;20035;-45
2023/09/14 03:55:36;;;;;;;0.00;0.00;;;;;;;12.40;100.00;102234.97;5092748;28;20367;-44
2023/09/14 03:58:01;;;;;;;0.00;0.00;;;;;;;12.39;100.00;102228.72;5109538;28;20397;-44
2023/09/14 04:00:27;;;;;;;0.00;0.00;;;;;;;12.38;100.00;102228.91;5100546;28;20047;-44
2023/09/14 04:02:54;;;;;;;0.00;0.00;;;;;;;12.38;100.00;102231.63;5113415;28;20016;-45
2023/09/14 04:05:19;;;;;;;0.00;0.00;;;;;;;12.35;100.00;102227.38;5101640;28;20489;-44
2023/09/14 04:07:45;;;;;;;0.00;0.00;;;;;;;12.34;100.00;102219.44;5097173;28;20278;-46
2023/09/14 04:10:10;;;;;;;0.00;0.00;;;;;;;12.33;100.00;102223.97;5099725;28;20024;-44
2023/09/14 04:12:40;;;;;;;0.00;0.00;;;;;;;12.32;100.00;102224.13;5113568;28;20020;-45
2023/09/14 04:15:05;;;;;;;0.00;0.00;;;;;;;12.32;100.00;102222.28;5113357;28;20035;-45
2023/09/14 04:17:31;;;;;;;0.00;0.00;;;;;;;12.32;100.00;102216.03;5113310;28;20431;-45
2023/09/14 04:19:56;;;;;;;0.00;0.00;;;;;;;12.31;100.00;102226.00;5107888;28;20540;-44
2023/09/14 04:22:21;;;;;;;0.00;0.00;;;;;;;12.33;100.00;102223.16;5091256;28;20040;-45
2023/09/14 04:24:47;;;;;;;0.00;0.00;;;;;;;12.34;100.00;102225.66;5102117;28;20051;-44
2023/09/14 04:27:12;;;;;;;0.00;0.00;;;;;;;12.35;100.00;102226.50;5097514;28;20044;-45
2023/09/14 04:29:37;;;;;;;0.00;0.00;;;;;;;12.35;100.00;102226.50;5090592;28;20020;-47
2023/09/14 04:32:04;;;;;;;0.00;0.00;;;;;;;12.36;100.00;102223.66;5090847;28;20498;-46
2023/09/14 04:34:29;;;;;;;0.00;0.00;;;;;;;12.39;100.00;102228.72;5099324;28;20038;-48
2023/09/14 04:36:55;;;;;;;0.00;0.00;;;;;;;12.37;100.00;102230.75;5110596;28;20301;-43
2023/09/14 04:39:20;;;;;;;0.00;0.00;;;;;;;12.39;100.00;102234.13;5090315;28;20035;-46
2023/09/14 04:41:45;;;;;;;0.00;0.00;;;;;;;12.39;100.00;102234.13;5090697;28;20043;-47
2023/09/14 04:44:11;;;;;;;0.00;0.00;;;;;;;12.40;100.00;102234.97;5090478;28;20031;-44
2023/09/14 04:46:36;;;;;;;0.00;0.00;;;;;;;12.35;100.00;102238.19;5094402;28;20024;-44
2023/09/14 04:49:02;;;;;;;0.00;0.00;;;;;;;12.34;100.00;102236.47;5092444;28;20130;-46
2023/09/14 04:51:27;;;;;;;0.00;0.00;;;;;;;12.35;100.00;102238.19;5100000;28;20035;-44
2023/09/14 04:53:52;;;;;;;0.00;0.00;;;;;;;12.35;100.00;102231.91;5101809;28;21175;-44
2023/09/14 04:56:19;;;;;;;0.00;0.00;;;;;;;12.34;100.00;102235.63;5092036;28;20028;-45
2023/09/14 04:58:44;;;;;;;0.00;0.00;;;;;;;12.33;100.00;102229.38;5093794;28;20031;-45
2023/09/14 05:01:10;;;;;;;0.03;0.00;;;;;;;12.35;100.00;102240.88;5099921;28;20539;-43
2023/09/14 05:03:35;;;;;;;0.00;0.00;;;;;;;12.37;100.00;102238.84;5093626;28;20027;-48
2023/09/14 05:06:02;;;;;;;0.00;0.00;;;;;;;12.36;100.00;102234.47;5101802;28;20027;-49
2023/09/14 05:08:28;;;;;;;0.00;0.00;;;;;;;12.38;100.00;102237.84;5093609;28;20020;-46
2023/09/14 05:10:53;;;;;;;0.00;0.00;;;;;;;12.40;100.00;102234.97;5091719;28;20032;-47
2023/09/14 05:13:20;;;;;;;0.00;0.00;;;;;;;12.41;100.00;102237.53;5092223;28;20165;-45
2023/09/14 05:15:46;;;;;;;0.00;0.00;;;;;;;12.43;100.00;102240.91;5092662;28;20099;-45
2023/09/14 05:18:11;;;;;;;0.00;0.00;;;;;;;12.43;100.00;102235.53;5093686;28;20212;-43
2023/09/14 05:20:37;;;;;;;0.00;0.00;;;;;;;12.47;100.00;102244.97;5097899;28;20034;-45
2023/09/14 05:23:03;;;;;;;0.00;0.00;;;;;;;12.45;100.00;102235.34;5112027;28;20027;-42
2023/09/14 05:25:29;;;;;;;0.00;0.00;;;;;;;12.45;100.00;102238.91;5112471;28;20096;-44
2023/09/14 05:27:54;;;;;;;0.00;0.00;;;;;;;12.46;100.00;102229.78;5112320;28;20465;-41
2023/09/14 05:30:22;;;;;;;0.00;0.00;;;;;;;12.48;100.00;102235.88;5111817;28;20065;-43
2023/09/14 05:32:47;;;;;;;;;;;;;;;12.52;100.00;102245.34;5092896;28;20508;-41
2023/09/14 05:35:13;;;;;;;0.00;0.00;;;;;;;12.55;100.00;102244.19;5091983;28;19912;-46
2023/09/14 05:37:38;;;;;;;0.00;0.00;;;;;;;12.59;100.00;102250.13;5091296;28;20131;-43
2023/09/14 05:40:11;;;;;;;0.00;0.00;;;;;;;12.65;100.00;102244.91;5105982;27;20110;-45
2023/09/14 05:42:37;;;;;;;0.00;0.00;;;;;;;12.72;100.00;102245.13;5100452;28;20038;-46
2023/09/14 05:45:11;;;;;;;0.00;0.00;;;;;;;12.84;100.00;102241.09;5099162;28;20039;-44
2023/09/14 05:47:37;;;;;;;0.00;0.00;;;;;;;12.94;100.00;102244.53;5089816;28;20036;-43
2023/09/14 05:50:03;;;;;;;0.03;0.00;;;;;;;13.06;100.00;102245.09;5089153;28;20084;-45
2023/09/14 05:52:30;;;;;;;0.00;0.00;;;;;;;13.14;100.00;102250.53;5089127;28;20085;-44
2023/09/14 05:54:55;;;;;;;0.00;0.00;;;;;;;13.20;100.00;102248.16;5089069;28;20032;-44
2023/09/14 05:57:20;;;;;;;0.00;0.00;;;;;;;13.26;100.00;102251.06;5089052;28;20551;-46
2023/09/14 05:59:46;;;;;;;0.00;0.00;;;;;;;13.31;100.00;102246.03;5090224;28;20086;-45
2023/09/14 06:02:11;;;;;;;0.00;0.00;;;;;;;13.38;100.00;102252.47;5090873;28;20036;-45
2023/09/14 06:04:37;;;;;;;0.00;0.00;;;;;;;13.51;100.00;102256.56;5090728;28;20078;-44
2023/09/14 06:07:03;;;;;;;0.00;0.00;;;;;;;13.61;100.00;102257.22;5101586;28;20023;-46
2023/09/14 06:09:29;;;;;;;0.00;0.00;;;;;;;13.69;100.00;102259.09;5091666;28;20036;-44
2023/09/14 06:11:55;;;;;;;0.00;0.00;;;;;;;13.78;100.00;102253.53;5094798;28;20028;-43
2023/09/14 06:14:21;;;;;;;0.00;0.00;;;;;;;13.84;100.00;102247.44;5095469;28;20089;-44
2023/09/14 06:16:46;;;;;;;0.00;0.00;;;;;;;13.92;100.00;102249.28;5110879;28;20023;-43
2023/09/14 06:19:11;;;;;;;0.00;0.00;;;;;;;13.97;100.00;102251.50;5100972;28;20482;-44
2023/09/14 06:21:37;;;;;;;0.00;0.00;;;;;;;13.98;100.00;102248.63;5090522;28;20066;-43
2023/09/14 06:24:03;;;;;;;0.00;0.00;;;;;;;14.00;100.00;102246.56;5091074;28;20024;-45
2023/09/14 06:26:29;;;;;;;0.00;0.00;;;;;;;14.05;100.00;102246.06;5091423;28;20408;-42
2023/09/14 06:28:55;;;;;;;0.00;0.00;;;;;;;14.05;100.00;102248.78;5092004;28;20611;-45
2023/09/14 06:31:23;;;;;;;0.00;0.00;;;;;;;14.15;100.00;102249.44;5091468;28;20115;-44
2023/09/14 06:33:49;;;;;;;0.00;0.00;;;;;;;14.22;100.00;102255.03;5094573;28;20050;-44
2023/09/14 06:36:18;;;;;;;0.00;0.00;;;;;;;14.28;100.00;102252.47;5099777;28;20478;-42
2023/09/14 06:38:44;;;;;;;0.00;0.00;;;;;;;14.29;100.00;102256.03;5101189;28;20043;-45
2023/09/14 06:41:10;;;;;;;0.00;0.00;;;;;;;14.51;100.00;102251.75;5097086;28;20039;-45
2023/09/14 06:43:35;;;;;;;0.00;0.00;;;;;;;14.75;100.00;102252.72;5100707;28;20527;-42
2023/09/14 06:46:00;;;;;;;0.00;0.00;;;;;;;14.98;100.00;102244.66;5094128;28;20490;-43
2023/09/14 06:48:26;;;;;;;0.00;0.00;;;;;;;15.38;100.00;102243.59;5109799;28;20020;-46
2023/09/14 06:50:51;;;;;;;0.00;0.00;;;;;;;15.69;100.00;102242.72;5100336;28;20053;-46
2023/09/14 06:53:16;;;;;;;0.00;0.00;;;;;;;15.87;100.00;102229.66;5106361;28;20030;-47
2023/09/14 06:55:42;;;;;;;0.00;0.00;;;;;;;15.98;100.00;102221.09;5113707;28;20116;-44
2023/09/14 06:58:08;;;;;;;0.00;0.00;;;;;;;16.15;100.00;102221.78;5103968;28;20390;-45
2023/09/14 07:00:35;;;;;;;0.00;0.00;;;;;;;16.73;100.00;102224.69;5101503;27;20059;-47
2023/09/14 07:03:02;;;;;;;0.00;0.00;;;;;;;17.18;100.00;102211.88;5098442;28;20487;-45
2023/09/14 07:05:27;;;;;;;0.00;0.00;;;;;;;17.71;100.00;102209.69;5106346;28;20030;-45
2023/09/14 07:07:53;;;;;;;0.00;0.00;;;;;;;18.19;100.00;102204.44;5108680;28;20024;-44
2023/09/14 07:10:18;;;;;;;0.00;0.00;;;;;;;18.84;100.00;102198.72;5103593;28;20106;-46
2023/09/14 07:12:44;;;;;;;0.20;0.00;;;;;;;19.58;100.00;102207.94;5092979;28;20032;-45
2023/09/14 07:15:10;;;;;;;0.00;0.00;;;;;;;19.75;100.00;102203.78;5107264;28;20028;-45
2023/09/14 07:17:35;;;;;;;0.00;0.00;;;;;;;19.80;100.00;102195.81;5091459;28;20023;-44
2023/09/14 07:20:01;;;;;;;0.00;0.00;;;;;;;19.51;100.00;102200.59;5098913;27;20027;-46
2023/09/14 07:22:26;;;;;;;0.00;0.00;;;;;;;19.48;100.00;102209.19;5097073;28;20038;-43
2023/09/14 07:24:51;;;;;;;0.00;0.00;;;;;;;19.42;100.00;102210.00;5103222;27;20027;-45
2023/09/14 07:27:17;;;;;;;0.00;0.00;;;;;;;19.26;100.00;102208.50;5094572;27;20521;-43
2023/09/14 07:29:42;;;;;;;0.00;0.00;;;;;;;18.84;100.00;102217.81;5103586;28;20445;-46
2023/09/14 07:32:08;;;;;;;0.05;0.00;;;;;;;19.63;100.00;102213.63;5113830;28;20106;-44
2023/09/14 07:34:33;;;;;;;0.00;0.00;;;;;;;19.75;100.00;102217.44;5112493;27;20027;-46
2023/09/14 07:36:58;;;;;;;0.00;0.00;;;;;;;20.39;100.00;102222.22;5113944;28;20023;-45
2023/09/14 07:39:24;;;;;;;0.00;0.00;;;;;;;20.98;100.00;102220.34;5107822;28;20093;-45
2023/09/14 07:41:55;;;;;;;0.00;0.00;;;;;;;21.47;100.00;102220.75;5104608;28;20101;-45
2023/09/14 07:44:20;;;;;;;0.00;0.00;;;;;;;21.91;100.00;102225.25;5110991;28;20034;-43
2023/09/14 07:46:45;;;;;;;0.00;0.00;;;;;;;22.02;100.00;102226.41;5105586;28;20032;-45
2023/09/14 07:49:11;;;;;;;0.00;0.00;;;;;;;22.16;100.00;102221.66;5105608;28;20077;-44
2023/09/14 07:51:36;;;;;;;0.00;0.00;;;;;;;21.73;100.00;102232.56;5098724;27;20020;-43
2023/09/14 07:54:02;;;;;;;0.00;0.00;;;;;;;21.40;100.00;102231.72;5103103;28;20024;-45
2023/09/14 07:56:27;;;;;;;0.00;0.00;;;;;;;21.87;100.00;102228.66;5095038;28;20027;-45
2023/09/14 07:58:56;;;;;;;0.00;0.00;;;;;;;21.84;100.00;102226.38;5098201;28;20030;-48
2023/09/14 08:01:22;;;;;;;0.00;0.00;;;;;;;21.57;100.00;102229.31;5096401;28;20044;-44
2023/09/14 08:03:47;;;;;;;0.00;0.00;;;;;;;22.30;100.00;102227.84;5094176;28;20024;-44
2023/09/14 08:06:15;;;;;;;0.00;0.00;;;;;;;23.05;100.00;102230.41;5094107;28;20038;-43
2023/09/14 08:08:40;;;;;;;;;;;;;;;22.73;100.00;102222.31;5094280;28;20031;-46
2023/09/14 08:11:06;;;;;;;0.00;0.00;;;;;;;22.47;100.00;102226.22;5092947;28;19973;-46
2023/09/14 08:13:31;;;;;;;0.00;0.00;;;;;;;23.10;100.00;102233.28;5092936;28;20110;-44
2023/09/14 08:15:57;;;;;;;0.00;0.00;;;;;;;22.23;100.00;102229.84;5092414;28;20035;-42
2023/09/14 08:18:22;;;;;;;0.00;0.00;;;;;;;22.23;100.00;102218.88;5091493;28;20034;-44
2023/09/14 08:20:47;;;;;;;0.00;0.00;;;;;;;22.09;100.00;102218.97;5105858;28;20065;-44
2023/09/14 08:23:19;;;;;;;0.00;0.00;;;;;;;23.27;100.00;102227.13;5113128;28;20119;-42
2023/09/14 08:25:45;;;;;;;0.00;0.00;;;;;;;22.56;100.00;102230.34;5112943;28;20386;-44
2023/09/14 08:28:13;;;;;;;0.00;0.00;;;;;;;22.48;100.00;102214.16;5112647;28;20023;-44
2023/09/14 08:30:38;;;;;;;;;;;;;;;23.65;100.00;102221.28;5093085;28;20023;-44
2023/09/14 08:33:04;;;;;;;0.00;0.00;;;;;;;23.88;100.00;102213.09;5092442;28;20277;-44
2023/09/14 08:35:31;;;;;;;0.00;0.00;;;;;;;23.14;100.00;102228.16;5092311;28;20024;-42
2023/09/14 08:37:56;;;;;;;;;;;;;;;24.01;100.00;102217.53;5092745;28;20111;-44
2023/09/14 08:40:23;;;;;;;0.00;0.00;;;;;;;23.85;100.00;102219.06;5092272;28;19939;-44
2023/09/14 08:42:50;;;;;;;0.00;0.00;;;;;;;25.06;97.58;102223.94;5092609;28;20078;-45
2023/09/14 08:45:21;;;;;;;0.00;0.00;;;;;;;25.66;92.46;102224.50;5092067;28;20032;-45
2023/09/14 08:47:47;;;;;;;0.00;0.00;;;;;;;25.03;91.17;102221.69;5091346;28;20024;-45
2023/09/14 08:50:14;;;;;;;0.00;0.00;;;;;;;23.31;98.07;102223.69;5091212;28;20267;-44
2023/09/14 08:52:41;;;;;;;0.00;0.00;;;;;;;22.44;100.00;102225.84;5090737;28;20028;-44
2023/09/14 08:55:07;;;;;;;0.00;0.00;;;;;;;23.33;100.00;102227.06;5091886;28;20074;-44
2023/09/14 08:57:32;;;;;;;0.00;0.00;;;;;;;23.97;99.07;102221.00;5092080;28;20795;-42
2023/09/14 08:59:59;;;;;;;0.00;0.00;;;;;;;23.93;98.83;102226.13;5090528;28;20046;-44
2023/09/14 09:02:27;;;;;;;0.00;0.00;;;;;;;24.54;97.75;102226.75;5091114;28;20389;-45
2023/09/14 09:04:52;;;;;;;0.00;0.00;;;;;;;24.56;97.16;102224.56;5092065;28;20495;-45
2023/09/14 09:07:17;;;;;;;0.00;0.00;;;;;;;24.05;97.85;102223.38;5091968;28;20032;-46
2023/09/14 09:09:47;;;;;;;0.00;0.00;;;;;;;24.32;96.06;102212.72;5090833;28;20471;-46
2023/09/14 09:12:12;;;;;;;0.00;0.00;;;;;;;24.91;95.06;102215.41;5090099;28;20063;-47
2023/09/14 09:14:38;;;;;;;0.00;0.00;;;;;;;23.99;95.55;102227.94;5089528;28;20036;-44
2023/09/14 09:17:03;;;;;;;0.00;0.00;;;;;;;23.05;100.00;102218.59;5090572;28;20104;-46
2023/09/14 09:19:29;;;;;;;0.00;0.00;;;;;;;22.31;100.00;102224.06;5102123;28;20023;-44
2023/09/14 09:21:54;;;;;;;0.00;0.00;;;;;;;21.63;100.00;102216.63;5111734;28;20032;-45
2023/09/14 09:24:26;;;;;;;0.00;0.00;;;;;;;21.18;100.00;102217.50;5110760;28;20027;-43
2023/09/14 09:26:51;;;;;;;0.00;0.00;;;;;;;21.41;100.00;102214.25;5111908;28;20028;-43
2023/09/14 09:29:22;;;;;;;0.00;0.00;;;;;;;21.42;100.00;102217.81;5111767;28;20416;-45
2023/09/14 09:31:52;;;;;;;0.00;0.00;;;;;;;21.03;100.00;102212.31;5111410;28;20027;-45
2023/09/14 09:34:28;;;;;;;0.00;0.00;;;;;;;21.41;100.00;102214.25;5113127;28;20027;-45
2023/09/14 09:36:57;;;;;;;0.00;0.00;;;;;;;21.36;100.00;102205.00;5112485;28;20023;-43
2023/09/14 09:39:23;;;;;;;0.00;0.00;;;;;;;21.04;100.00;102213.19;5111610;28;20114;-42
2023/09/14 09:41:49;;;;;;;0.00;0.00;;;;;;;20.84;100.00;102210.53;5108793;28;20027;-45
2023/09/14 09:44:15;;;;;;;0.00;0.00;;;;;;;20.87;100.00;102212.00;5092562;28;20034;-43
2023/09/14 09:46:42;;;;;;;0.00;0.00;;;;;;;20.82;100.00;102210.72;5091828;28;20038;-44
2023/09/14 09:49:19;;;;;;;0.00;0.00;;;;;;;20.71;100.00;102213.31;5092235;28;20024;-42
2023/09/14 09:51:51;;;;;;;0.00;0.00;;;;;;;21.29;100.00;102209.66;5092378;28;20501;-42
2023/09/14 09:54:21;;;;;;;0.00;0.00;;;;;;;21.79;100.00;102207.84;5090324;28;20032;-41
2023/09/14 09:56:46;;;;;;;0.00;0.00;;;;;;;21.75;100.00;102205.78;5091315;28;20049;-43
2023/09/14 09:59:14;;;;;;;0.00;0.00;;;;;;;21.62;100.00;102198.53;5090273;28;20025;-44
2023/09/14 10:01:40;;;;;;;0.00;0.00;;;;;;;21.30;100.00;102198.50;5089734;28;20448;-43
2023/09/14 10:04:13;;;;;;;0.00;0.00;;;;;;;21.18;100.00;102192.03;5091334;28;20481;-43
2023/09/14 10:06:40;;;;;;;0.00;0.00;;;;;;;21.54;100.00;102196.88;5090411;28;20024;-45
2023/09/14 10:09:10;;;;;;;0.00;0.00;;;;;;;21.21;100.00;102197.91;5098536;28;20023;-42
2023/09/14 10:11:37;;;;;;;0.00;0.00;;;;;;;21.24;100.00;102191.97;5111308;28;20437;-43
2023/09/14 10:14:03;;;;;;;0.00;0.00;;;;;;;21.46;100.00;102191.69;5090601;28;20390;-44
2023/09/14 10:16:48;;;;;;;0.00;0.00;;;;;;;21.45;100.00;102187.25;5089607;28;20051;-42
2023/09/14 10:19:15;;;;;;;0.00;0.00;;;;;;;21.15;100.00;102190.59;5090279;28;20047;-44
2023/09/14 10:21:41;;;;;;;0.00;0.00;;;;;;;20.98;100.00;102192.13;5089546;28;20043;-43
2023/09/14 10:24:07;;;;;;;0.00;0.00;;;;;;;20.70;100.00;102190.59;5091128;28;20466;-44
2023/09/14 10:26:39;;;;;;;0.00;0.00;;;;;;;20.79;100.00;102183.81;5094929;28;20060;-42
2023/09/14 10:29:08;;;;;;;0.00;0.00;;;;;;;20.82;100.00;102188.00;5095037;28;20024;-44
2023/09/14 10:31:38;;;;;;;0.00;0.00;;;;;;;20.78;100.00;102182.13;5094663;28;20441;-45
2023/09/14 10:34:04;;;;;;;0.00;0.00;;;;;;;20.80;100.00;102184.63;5094997;28;20032;-44
2023/09/14 10:36:31;;;;;;;0.00;0.00;;;;;;;20.66;100.00;102181.13;5094817;28;20031;-45
2023/09/14 10:38:59;;;;;;;0.00;0.00;;;;;;;20.69;100.00;102183.44;5095135;28;20036;-43
2023/09/14 10:41:24;;;;;;;0.00;0.00;;;;;;;20.69;97.14;102186.16;5094345;28;20024;-47
2023/09/14 10:43:50;;;;;;;0.00;0.00;;;;;;;20.66;98.81;102177.56;5098612;28;20385;-43
2023/09/14 10:46:17;;;;;;;0.00;0.00;;;;;;;20.85;98.62;102175.78;5114906;28;20032;-44
2023/09/14 10:48:44;;;;;;;0.00;0.00;;;;;;;20.94;100.00;102166.28;5113810;28;20051;-42
2023/09/14 10:51:10;;;;;;;0.00;0.00;;;;;;;20.99;100.00;102167.31;5114632;28;20031;-45
2023/09/14 10:53:35;;;;;;;0.00;0.00;;;;;;;21.04;99.34;102169.38;5114934;28;20186;-45
2023/09/14 10:56:02;;;;;;;0.00;0.00;;;;;;;21.15;99.75;102170.59;5111910;27;20044;-42
2023/09/14 10:58:39;;;;;;;0.00;0.00;;;;;;;21.12;96.75;102160.91;5112843;28;20114;-42
2023/09/14 11:01:09;;;;;;;0.00;0.00;;;;;;;21.09;96.92;102160.50;5114921;28;20044;-47
2023/09/14 11:04:06;;;;;;;0.00;0.00;;;;;;;21.23;95.72;102168.41;5112754;28;20061;-42
2023/09/14 11:06:40;;;;;;;0.00;0.00;;;;;;;21.07;97.52;102168.94;5097681;28;20040;-44
2023/09/14 11:09:06;;;;;;;0.00;0.00;;;;;;;21.07;97.54;102168.94;5127533;27;20103;-43
2023/09/14 11:11:43;;;;;;;0.00;0.00;;;;;;;21.21;94.53;102164.22;5110479;27;20111;-44
2023/09/14 11:14:10;;;;;;;0.00;0.00;;;;;;;21.31;95.14;102166.47;5094913;28;20080;-45
2023/09/14 11:16:51;;;;;;;0.00;0.00;;;;;;;21.46;92.51;102161.56;5094367;28;20024;-43